Flight Track Log - Related Links

Times and Time Zones

All times are in EDT time to prevent confusion due to time zone crossing. See the CHQ6159 flight status page for this flight to view local times or setup timezone preferences in your user account.

Time Position Orientation Groundspeed Altitude Reporting Facility
EDT Latitude Longitude Course Direction KTS MPH feet Rate Location/Type
Mon 01:59:12 PM 43.4739 -83.9742 164° South 228 262 5,100  Level Cleveland Center
Mon 02:00:00 PM 43.2015 -83.8942 157° South  Level Estimated
Mon 02:00:14 PM 43.4058 -83.9489 165° South 241 277 7,900  Level Cleveland Center
Mon 02:01:00 PM 43.1186 -83.8481 162° South  Level Estimated
Mon 02:01:16 PM 43.3417 -83.9244 165° South 243 280 10,100  Level Cleveland Center
Mon 02:02:00 PM 43.0314 -83.8205 167° South  Level FlightAware Approximate
Mon 02:02:18 PM 43.2694 -83.8972 165° South 265 305 11,600  Level Cleveland Center
Mon 02:03:00 PM 42.9639 -83.7815 154° Southeast  Level Estimated
Mon 02:03:20 PM 43.1847 -83.8650 164° South 314 361 12,000  Level Cleveland Center
Mon 02:04:00 PM 42.8964 -83.7426 164° South  Level Estimated
Mon 02:04:23 PM 43.0906 -83.8300 165° South 351 404 12,000  Level Cleveland Center
Mon 02:05:03 PM 43.0161 -83.8028 165° South 321 369 12,000  Level Cleveland Center
Mon 02:05:25 PM 42.9861 -83.7917 165° South 324 373 12,000  Level Cleveland Center
Mon 02:06:23 PM 42.9061 -83.7636 166° South 291 335 12,000  Level Cleveland Center
Mon 02:07:18 PM 42.8308 -83.7353 165° South 310 357 12,000  Level Cleveland Center
Mon 02:07:29 PM 42.8258 -83.7311 149° Southeast 302 348 12,000 -655 Level Cleveland Center
Mon 02:08:13 PM 42.7567 -83.7186 172° South 276 318 11,400 -774 Descending Cleveland Center
Mon 02:08:31 PM 42.7456 -83.7153 168° South 291 335 11,200 -1,147 Descending Cleveland Center
Mon 02:09:21 PM 42.6783 -83.7014 171° South 261 300 10,100 -1,065 Descending Cleveland Center
Mon 02:09:33 PM 42.6736 -83.7011 178° South 265 305 10,100 -1,075 Level Cleveland Center
Mon 02:10:28 PM 42.6028 -83.6761 165° South 237 273 8,900 -1,138 Descending Cleveland Center
Mon 02:11:29 PM 42.5422 -83.6500 162° South 227 261 7,900 -976 Descending Cleveland Center
Mon 02:12:31 PM 42.4856 -83.6219 160° South 215 247 6,900 -923 Descending Cleveland Center
Mon 02:13:26 PM 42.4353 -83.5975 160° South 213 245 6,100 -761 Descending Cleveland Center
Mon 02:13:42 PM 42.4250 -83.5939 165° South 214 246 6,000 -98 Descending Cleveland Center
Mon 02:14:27 PM 42.3764 -83.5722 162° South 204 235 6,000  Level Cleveland Center
Mon 02:14:44 PM 42.3706 -83.5694 161° South 213 245 6,000  Level Cleveland Center
Mon 02:15:28 PM 42.3294 -83.5286 144° Southeast 225 259 6,000  Level Cleveland Center
Mon 02:15:46 PM 42.3253 -83.5197 122° Southeast 213 245 6,000  Level Cleveland Center
Mon 02:16:30 PM 42.3369 -83.4619 75° East 215 247 6,000  Level Cleveland Center
Mon 02:16:48 PM 42.3453 -83.4564 26° Northeast 217 250 6,000  Level Cleveland Center
Mon 02:17:26 PM 42.3919 -83.4275 25° Northeast 221 254 6,000 -95 Level Cleveland Center
Mon 02:17:51 PM 42.4128 -83.4142 25° Northeast 218 251 5,900 -689 Descending Cleveland Center
Mon 02:18:27 PM 42.4447 -83.3953 24° Northeast 208 239 5,300 -871 Descending Cleveland Center
Mon 02:18:53 PM 42.4617 -83.3717 46° Northeast 218 251 5,000 -984 Descending Cleveland Center
Mon 02:19:28 PM 42.4892 -83.3364 43° Northeast 218 251 4,300 -968 Descending Cleveland Center
Mon 02:19:55 PM 42.5050 -83.3158 44° Northeast 217 250 4,000 -202 Descending Cleveland Center
Mon 02:20:57 PM 42.5447 -83.2603 46° Northeast 213 245 4,000  Level Cleveland Center
Mon 02:21:36 PM 42.5411 -83.2050 95° East 201 231 4,000  Level Cleveland Center
Mon 02:21:59 PM 42.5383 -83.1908 105° East 205 236 4,000  Level Cleveland Center
Mon 02:22:37 PM 42.5047 -83.1631 149° Southeast 201 231 4,000  Level Cleveland Center
Mon 02:23:01 PM 42.4947 -83.1678 199° South 202 232 4,000  Level Cleveland Center
Mon 02:23:39 PM 42.4561 -83.1961 208° Southwest 206 237 4,000  Level Cleveland Center
Mon 02:24:04 PM 42.4389 -83.2092 209° Southwest 194 223 4,000  Level Cleveland Center
Mon 02:24:40 PM 42.4069 -83.2344 210° Southwest 195 224 4,000  Level Cleveland Center
Mon 02:25:06 PM 42.3906 -83.2447 205° Southwest 194 223 4,000 -327 Level Cleveland Center
Mon 02:25:35 PM 42.3628 -83.2650 208° Southwest 195 224 3,700 -774 Descending Cleveland Center
Mon 02:26:08 PM 42.3425 -83.2800 209° Southwest 194 223 3,200 -1,082 Descending Cleveland Center
Mon 02:26:36 PM 42.3139 -83.3006 208° Southwest 197 227 2,600 -968 Descending Cleveland Center
Mon 02:27:10 PM 42.2939 -83.3169 211° Southwest 196 226 2,200 -885 Descending Cleveland Center
Mon 02:27:37 PM 42.2714 -83.3342 210° Southwest 144 166 1,700 -774 Descending Cleveland Center
Mon 02:28:12 PM 42.2561 -83.3453 208° Southwest 170 196 1,400 -706 Descending Cleveland Center
Mon 02:28:45 PM 42.2294 -83.3619 205° Southwest 145 167 900 -581 Descending Cleveland Center
Mon 02:29:14 PM 42.2167 -83.3733 213° Southwest 155 178 800 -207 Descending Cleveland Center

Login

Don't have an account? Register now (free) for customized features, flight alerts, and more!